sensor_id;sensor_type;location;lat;lon;timestamp;pressure;altitude;pressure_sealevel;temperature;humidity
48862;BME280;34681;49.188;-0.374;2023-02-12T00:02:17;103514.00;;;9.42;76.83
48862;BME280;34681;49.188;-0.374;2023-02-12T00:04:43;103517.00;;;9.56;76.11
48862;BME280;34681;49.188;-0.374;2023-02-12T00:07:09;103508.13;;;9.89;75.71
48862;BME280;34681;49.188;-0.374;2023-02-12T00:09:35;103509.66;;;9.76;75.38
48862;BME280;34681;49.188;-0.374;2023-02-12T00:12:01;103504.56;;;9.49;76.24
48862;BME280;34681;49.188;-0.374;2023-02-12T00:14:26;103502.78;;;9.67;76.25
48862;BME280;34681;49.188;-0.374;2023-02-12T00:16:51;103503.31;;;9.56;76.18
48862;BME280;34681;49.188;-0.374;2023-02-12T00:19:17;103500.59;;;9.56;75.86
48862;BME280;34681;49.188;-0.374;2023-02-12T00:21:42;103492.16;;;9.42;76.29
48862;BME280;34681;49.188;-0.374;2023-02-12T00:24:07;103496.97;;;9.37;76.89
48862;BME280;34681;49.188;-0.374;2023-02-12T00:26:34;103497.16;;;9.33;76.86
48862;BME280;34681;49.188;-0.374;2023-02-12T00:29:00;103499.97;;;9.31;77.14
48862;BME280;34681;49.188;-0.374;2023-02-12T00:31:28;103496.19;;;9.15;77.53
48862;BME280;34681;49.188;-0.374;2023-02-12T00:33:54;103503.88;;;9.25;77.41
48862;BME280;34681;49.188;-0.374;2023-02-12T00:36:22;103486.13;;;9.36;77.15
48862;BME280;34681;49.188;-0.374;2023-02-12T00:38:50;103483.31;;;9.37;76.52
48862;BME280;34681;49.188;-0.374;2023-02-12T00:41:16;103481.44;;;9.38;76.46
48862;BME280;34681;49.188;-0.374;2023-02-12T00:43:42;103492.81;;;9.28;76.89
48862;BME280;34681;49.188;-0.374;2023-02-12T00:46:08;103483.22;;;9.57;76.14
48862;BME280;34681;49.188;-0.374;2023-02-12T00:48:34;103489.66;;;9.38;76.27
48862;BME280;34681;49.188;-0.374;2023-02-12T00:51:00;103491.31;;;9.21;77.05
48862;BME280;34681;49.188;-0.374;2023-02-12T00:53:26;103488.88;;;9.15;77.33
48862;BME280;34681;49.188;-0.374;2023-02-12T00:55:51;103486.28;;;9.12;77.70
48862;BME280;34681;49.188;-0.374;2023-02-12T00:58:17;103492.72;;;9.11;77.73
48862;BME280;34681;49.188;-0.374;2023-02-12T01:00:42;103490.53;;;9.19;77.64
48862;BME280;34681;49.188;-0.374;2023-02-12T01:03:08;103489.25;;;9.26;77.26
48862;BME280;34681;49.188;-0.374;2023-02-12T01:05:34;103488.59;;;9.40;77.12
48862;BME280;34681;49.188;-0.374;2023-02-12T01:07:59;103493.56;;;9.32;76.50
48862;BME280;34681;49.188;-0.374;2023-02-12T01:10:25;103483.66;;;9.29;77.28
48862;BME280;34681;49.188;-0.374;2023-02-12T01:12:51;103488.16;;;9.31;76.68
48862;BME280;34681;49.188;-0.374;2023-02-12T01:15:17;103499.59;;;9.20;77.24
48862;BME280;34681;49.188;-0.374;2023-02-12T01:17:43;103484.38;;;9.14;77.32
48862;BME280;34681;49.188;-0.374;2023-02-12T01:20:11;103481.06;;;9.26;77.52
48862;BME280;34681;49.188;-0.374;2023-02-12T01:22:37;103473.69;;;9.47;76.04
48862;BME280;34681;49.188;-0.374;2023-02-12T01:25:04;103476.88;;;9.38;75.86
48862;BME280;34681;49.188;-0.374;2023-02-12T01:27:30;103478.22;;;9.09;76.65
48862;BME280;34681;49.188;-0.374;2023-02-12T01:29:56;103473.88;;;9.05;76.91
48862;BME280;34681;49.188;-0.374;2023-02-12T01:32:21;103467.38;;;9.26;76.51
48862;BME280;34681;49.188;-0.374;2023-02-12T01:34:47;103470.16;;;9.64;75.36
48862;BME280;34681;49.188;-0.374;2023-02-12T01:37:14;103469.78;;;9.53;75.43
48862;BME280;34681;49.188;-0.374;2023-02-12T01:39:40;103475.91;;;9.39;75.43
48862;BME280;34681;49.188;-0.374;2023-02-12T01:42:05;103472.53;;;9.53;75.33
48862;BME280;34681;49.188;-0.374;2023-02-12T01:44:32;103474.38;;;9.52;75.15
48862;BME280;34681;49.188;-0.374;2023-02-12T01:47:01;103472.28;;;9.57;74.93
48862;BME280;34681;49.188;-0.374;2023-02-12T01:49:37;103468.97;;;9.70;74.52
48862;BME280;34681;49.188;-0.374;2023-02-12T01:54:34;103468.66;;;9.57;74.67
48862;BME280;34681;49.188;-0.374;2023-02-12T01:57:03;103468.88;;;9.34;75.20
48862;BME280;34681;49.188;-0.374;2023-02-12T01:59:29;103472.72;;;9.11;76.11
48862;BME280;34681;49.188;-0.374;2023-02-12T02:01:55;103481.22;;;9.23;75.74
48862;BME280;34681;49.188;-0.374;2023-02-12T02:04:26;103467.78;;;9.19;75.55
48862;BME280;34681;49.188;-0.374;2023-02-12T02:06:59;103468.34;;;9.07;76.30
48862;BME280;34681;49.188;-0.374;2023-02-12T02:09:26;103465.97;;;9.18;75.75
48862;BME280;34681;49.188;-0.374;2023-02-12T02:11:52;103466.50;;;9.26;75.60
48862;BME280;34681;49.188;-0.374;2023-02-12T02:14:36;103462.34;;;9.17;76.16
48862;BME280;34681;49.188;-0.374;2023-02-12T02:17:19;103462.44;;;9.16;75.91
48862;BME280;34681;49.188;-0.374;2023-02-12T02:28:19;103463.28;;;8.97;76.55
48862;BME280;34681;49.188;-0.374;2023-02-12T02:30:56;103466.91;;;8.98;76.33
48862;BME280;34681;49.188;-0.374;2023-02-12T02:33:48;103461.53;;;8.96;76.63
48862;BME280;34681;49.188;-0.374;2023-02-12T02:36:35;103454.59;;;9.08;76.33
48862;BME280;34681;49.188;-0.374;2023-02-12T02:39:15;103460.28;;;9.04;76.46
48862;BME280;34681;49.188;-0.374;2023-02-12T02:41:47;103456.56;;;8.86;77.05
48862;BME280;34681;49.188;-0.374;2023-02-12T02:44:23;103458.09;;;8.91;77.05
48862;BME280;34681;49.188;-0.374;2023-02-12T02:46:51;103452.56;;;8.93;76.73
48862;BME280;34681;49.188;-0.374;2023-02-12T02:49:31;103449.28;;;9.05;76.29
48862;BME280;34681;49.188;-0.374;2023-02-12T02:52:04;103450.81;;;8.92;76.68
48862;BME280;34681;49.188;-0.374;2023-02-12T02:54:35;103454.69;;;9.07;76.57
48862;BME280;34681;49.188;-0.374;2023-02-12T02:57:10;103453.97;;;9.22;76.08
48862;BME280;34681;49.188;-0.374;2023-02-12T02:59:41;103447.69;;;9.20;75.28
48862;BME280;34681;49.188;-0.374;2023-02-12T03:04:45;103442.22;;;9.20;75.56
48862;BME280;34681;49.188;-0.374;2023-02-12T03:09:53;103444.03;;;9.00;76.40
48862;BME280;34681;49.188;-0.374;2023-02-12T03:12:28;103437.84;;;8.97;76.28
48862;BME280;34681;49.188;-0.374;2023-02-12T03:15:16;103438.78;;;8.96;75.87
48862;BME280;34681;49.188;-0.374;2023-02-12T03:17:46;103429.25;;;8.86;76.23
48862;BME280;34681;49.188;-0.374;2023-02-12T03:20:23;103432.38;;;8.97;76.10
48862;BME280;34681;49.188;-0.374;2023-02-12T03:22:56;103421.75;;;9.10;76.15
48862;BME280;34681;49.188;-0.374;2023-02-12T03:25:27;103430.69;;;9.32;75.13
48862;BME280;34681;49.188;-0.374;2023-02-12T03:28:15;103425.44;;;9.09;75.77
48862;BME280;34681;49.188;-0.374;2023-02-12T03:37:00;103417.31;;;9.07;75.70
48862;BME280;34681;49.188;-0.374;2023-02-12T03:39:14;103418.03;;;8.92;76.26
48862;BME280;34681;49.188;-0.374;2023-02-12T03:41:49;103421.44;;;8.97;76.35
48862;BME280;34681;49.188;-0.374;2023-02-12T03:52:38;103424.44;;;8.72;77.33
48862;BME280;34681;49.188;-0.374;2023-02-12T03:55:04;103423.41;;;8.93;76.89
48862;BME280;34681;49.188;-0.374;2023-02-12T03:57:33;103418.25;;;8.87;77.03
48862;BME280;34681;49.188;-0.374;2023-02-12T04:00:05;103419.66;;;8.77;77.46
48862;BME280;34681;49.188;-0.374;2023-02-12T04:02:32;103420.69;;;8.93;76.73
48862;BME280;34681;49.188;-0.374;2023-02-12T04:05:04;103421.28;;;9.00;76.80
48862;BME280;34681;49.188;-0.374;2023-02-12T04:07:29;103424.34;;;9.13;76.07
48862;BME280;34681;49.188;-0.374;2023-02-12T04:09:55;103419.81;;;8.93;76.74
48862;BME280;34681;49.188;-0.374;2023-02-12T04:12:32;103413.41;;;8.94;76.89
48862;BME280;34681;49.188;-0.374;2023-02-12T04:15:29;103415.63;;;9.05;76.20
48862;BME280;34681;49.188;-0.374;2023-02-12T04:23:43;103423.72;;;8.87;77.14
48862;BME280;34681;49.188;-0.374;2023-02-12T04:29:07;103421.69;;;8.72;77.39
48862;BME280;34681;49.188;-0.374;2023-02-12T04:31:48;103420.38;;;8.81;77.14
48862;BME280;34681;49.188;-0.374;2023-02-12T04:37:18;103414.75;;;9.04;76.69
48862;BME280;34681;49.188;-0.374;2023-02-12T04:39:45;103424.78;;;9.04;76.00
48862;BME280;34681;49.188;-0.374;2023-02-12T04:42:11;103420.13;;;9.06;76.05
48862;BME280;34681;49.188;-0.374;2023-02-12T04:44:39;103421.97;;;9.05;75.89
48862;BME280;34681;49.188;-0.374;2023-02-12T04:47:04;103418.25;;;8.87;76.32
48862;BME280;34681;49.188;-0.374;2023-02-12T04:49:30;103420.47;;;8.98;76.00
48862;BME280;34681;49.188;-0.374;2023-02-12T04:51:55;103426.16;;;8.93;76.25
48862;BME280;34681;49.188;-0.374;2023-02-12T04:54:22;103430.53;;;8.97;76.40
48862;BME280;34681;49.188;-0.374;2023-02-12T04:56:48;103430.41;;;8.80;76.64
48862;BME280;34681;49.188;-0.374;2023-02-12T04:59:14;103427.88;;;8.76;77.10
48862;BME280;34681;49.188;-0.374;2023-02-12T05:01:40;103428.22;;;8.88;77.09
48862;BME280;34681;49.188;-0.374;2023-02-12T05:04:07;103436.94;;;8.96;76.51
48862;BME280;34681;49.188;-0.374;2023-02-12T05:06:34;103434.41;;;8.92;76.45
48862;BME280;34681;49.188;-0.374;2023-02-12T05:09:00;103442.06;;;9.04;75.96
48862;BME280;34681;49.188;-0.374;2023-02-12T05:11:25;103432.56;;;8.92;76.61
48862;BME280;34681;49.188;-0.374;2023-02-12T05:13:52;103431.22;;;8.82;76.97
48862;BME280;34681;49.188;-0.374;2023-02-12T05:16:19;103425.38;;;8.71;77.37
48862;BME280;34681;49.188;-0.374;2023-02-12T05:18:44;103423.81;;;8.86;77.27
48862;BME280;34681;49.188;-0.374;2023-02-12T05:21:10;103422.84;;;8.87;76.75
48862;BME280;34681;49.188;-0.374;2023-02-12T05:23:37;103426.56;;;8.84;77.25
48862;BME280;34681;49.188;-0.374;2023-02-12T05:26:05;103421.28;;;8.81;76.96
48862;BME280;34681;49.188;-0.374;2023-02-12T05:28:32;103423.63;;;8.70;77.50
48862;BME280;34681;49.188;-0.374;2023-02-12T05:31:05;103413.78;;;8.66;77.77
48862;BME280;34681;49.188;-0.374;2023-02-12T05:33:31;103409.09;;;8.69;77.83
48862;BME280;34681;49.188;-0.374;2023-02-12T05:36:11;103409.09;;;8.88;76.92
48862;BME280;34681;49.188;-0.374;2023-02-12T05:38:37;103407.34;;;8.67;77.75
48862;BME280;34681;49.188;-0.374;2023-02-12T05:41:07;103409.81;;;8.73;77.64
48862;BME280;34681;49.188;-0.374;2023-02-12T05:43:33;103408.00;;;8.53;78.00
48862;BME280;34681;49.188;-0.374;2023-02-12T05:46:00;103411.19;;;8.63;77.83
48862;BME280;34681;49.188;-0.374;2023-02-12T05:48:26;103415.88;;;8.59;77.62
48862;BME280;34681;49.188;-0.374;2023-02-12T05:50:52;103422.38;;;8.57;77.72
48862;BME280;34681;49.188;-0.374;2023-02-12T05:53:19;103418.78;;;8.56;77.92
48862;BME280;34681;49.188;-0.374;2023-02-12T05:55:44;103424.16;;;8.58;77.83
48862;BME280;34681;49.188;-0.374;2023-02-12T05:58:10;103423.59;;;8.50;78.25
48862;BME280;34681;49.188;-0.374;2023-02-12T06:00:35;103416.28;;;8.30;78.85
48862;BME280;34681;49.188;-0.374;2023-02-12T06:03:01;103425.88;;;8.18;79.49
48862;BME280;34681;49.188;-0.374;2023-02-12T06:05:26;103417.19;;;8.08;79.58
48862;BME280;34681;49.188;-0.374;2023-02-12T06:07:52;103407.72;;;8.17;79.81
48862;BME280;34681;49.188;-0.374;2023-02-12T06:10:17;103417.44;;;8.24;79.61
48862;BME280;34681;49.188;-0.374;2023-02-12T06:12:42;103419.97;;;8.29;79.62
48862;BME280;34681;49.188;-0.374;2023-02-12T06:15:08;103410.28;;;8.22;79.76
48862;BME280;34681;49.188;-0.374;2023-02-12T06:17:33;103404.13;;;8.16;80.14
48862;BME280;34681;49.188;-0.374;2023-02-12T06:19:59;103410.28;;;8.22;80.23
48862;BME280;34681;49.188;-0.374;2023-02-12T06:22:26;103399.47;;;8.40;79.59
48862;BME280;34681;49.188;-0.374;2023-02-12T06:24:52;103394.09;;;8.39;79.58
48862;BME280;34681;49.188;-0.374;2023-02-12T06:27:17;103400.81;;;8.51;79.18
48862;BME280;34681;49.188;-0.374;2023-02-12T06:29:42;103396.59;;;8.43;79.38
48862;BME280;34681;49.188;-0.374;2023-02-12T06:32:08;103389.00;;;8.30;79.51
48862;BME280;34681;49.188;-0.374;2023-02-12T06:34:33;103394.09;;;8.39;79.66
48862;BME280;34681;49.188;-0.374;2023-02-12T06:36:58;103393.84;;;8.43;79.32
48862;BME280;34681;49.188;-0.374;2023-02-12T06:39:24;103392.44;;;8.55;79.02
48862;BME280;34681;49.188;-0.374;2023-02-12T06:41:49;103395.03;;;8.38;79.27
48862;BME280;34681;49.188;-0.374;2023-02-12T06:44:15;103396.31;;;8.29;80.13
48862;BME280;34681;49.188;-0.374;2023-02-12T06:46:40;103398.56;;;8.20;80.63
48862;BME280;34681;49.188;-0.374;2023-02-12T06:49:06;103390.22;;;8.23;80.94
48862;BME280;34681;49.188;-0.374;2023-02-12T06:51:31;103398.66;;;8.16;80.90
48862;BME280;34681;49.188;-0.374;2023-02-12T06:53:57;103392.69;;;8.29;80.79
48862;BME280;34681;49.188;-0.374;2023-02-12T06:56:24;103397.31;;;8.27;80.54
48862;BME280;34681;49.188;-0.374;2023-02-12T06:58:55;103390.94;;;8.48;80.35
48862;BME280;34681;49.188;-0.374;2023-02-12T07:01:24;103399.63;;;8.37;79.93
48862;BME280;34681;49.188;-0.374;2023-02-12T07:03:53;103392.44;;;8.35;80.22
48862;BME280;34681;49.188;-0.374;2023-02-12T07:06:19;103403.28;;;8.57;79.69
48862;BME280;34681;49.188;-0.374;2023-02-12T07:08:45;103386.78;;;8.39;79.80
48862;BME280;34681;49.188;-0.374;2023-02-12T07:11:11;103393.56;;;8.29;80.15
48862;BME280;34681;49.188;-0.374;2023-02-12T07:13:36;103397.75;;;8.38;80.38
48862;BME280;34681;49.188;-0.374;2023-02-12T07:16:14;103395.91;;;8.38;80.10
48862;BME280;34681;49.188;-0.374;2023-02-12T07:18:41;103408.34;;;8.46;80.06
48862;BME280;34681;49.188;-0.374;2023-02-12T07:21:08;103400.41;;;8.39;80.21
48862;BME280;34681;49.188;-0.374;2023-02-12T07:23:35;103398.34;;;8.24;80.67
48862;BME280;34681;49.188;-0.374;2023-02-12T07:26:04;103405.00;;;8.17;80.46
48862;BME280;34681;49.188;-0.374;2023-02-12T07:28:30;103407.88;;;8.14;80.31
48862;BME280;34681;49.188;-0.374;2023-02-12T07:30:59;103406.22;;;8.10;80.48
48862;BME280;34681;49.188;-0.374;2023-02-12T07:33:25;103402.91;;;8.03;80.77
48862;BME280;34681;49.188;-0.374;2023-02-12T07:35:50;103403.94;;;8.21;80.29
48862;BME280;34681;49.188;-0.374;2023-02-12T07:38:16;103410.78;;;8.09;79.60
48862;BME280;34681;49.188;-0.374;2023-02-12T07:40:41;103417.75;;;8.16;79.67
48862;BME280;34681;49.188;-0.374;2023-02-12T07:43:07;103412.84;;;8.25;79.50
48862;BME280;34681;49.188;-0.374;2023-02-12T07:45:32;103413.13;;;8.18;79.48
48862;BME280;34681;49.188;-0.374;2023-02-12T07:47:57;103416.22;;;8.31;78.99
48862;BME280;34681;49.188;-0.374;2023-02-12T07:50:23;103411.25;;;8.41;78.26
48862;BME280;34681;49.188;-0.374;2023-02-12T07:52:48;103407.00;;;8.34;78.39
48862;BME280;34681;49.188;-0.374;2023-02-12T07:55:15;103417.69;;;8.18;78.66
48862;BME280;34681;49.188;-0.374;2023-02-12T07:57:40;103421.44;;;8.15;78.77
48862;BME280;34681;49.188;-0.374;2023-02-12T08:00:06;103420.69;;;8.12;78.91
48862;BME280;34681;49.188;-0.374;2023-02-12T08:02:32;103416.41;;;8.27;78.40
48862;BME280;34681;49.188;-0.374;2023-02-12T08:04:57;103400.66;;;8.33;77.88
48862;BME280;34681;49.188;-0.374;2023-02-12T08:07:23;103412.28;;;8.38;77.76
48862;BME280;34681;49.188;-0.374;2023-02-12T08:09:50;103415.56;;;8.47;77.31
48862;BME280;34681;49.188;-0.374;2023-02-12T08:12:16;103412.06;;;8.43;77.42
48862;BME280;34681;49.188;-0.374;2023-02-12T08:14:42;103418.56;;;8.40;77.12
48862;BME280;34681;49.188;-0.374;2023-02-12T08:17:08;103421.94;;;8.25;77.98
48862;BME280;34681;49.188;-0.374;2023-02-12T08:19:34;103422.53;;;8.11;78.45
48862;BME280;34681;49.188;-0.374;2023-02-12T08:22:00;103420.84;;;8.29;78.16
48862;BME280;34681;49.188;-0.374;2023-02-12T08:24:30;103419.75;;;8.33;77.96
48862;BME280;34681;49.188;-0.374;2023-02-12T08:26:56;103417.91;;;8.34;77.86
48862;BME280;34681;49.188;-0.374;2023-02-12T08:29:23;103408.84;;;8.33;78.32
48862;BME280;34681;49.188;-0.374;2023-02-12T08:31:50;103410.38;;;8.40;77.80
48862;BME280;34681;49.188;-0.374;2023-02-12T08:34:23;103403.97;;;8.41;77.94
48862;BME280;34681;49.188;-0.374;2023-02-12T08:36:50;103397.31;;;8.67;76.73
48862;BME280;34681;49.188;-0.374;2023-02-12T08:39:18;103409.50;;;8.40;77.27
48862;BME280;34681;49.188;-0.374;2023-02-12T08:41:43;103409.84;;;8.53;76.84
48862;BME280;34681;49.188;-0.374;2023-02-12T08:44:10;103411.72;;;8.30;77.57
48862;BME280;34681;49.188;-0.374;2023-02-12T08:46:38;103407.66;;;8.18;77.95
48862;BME280;34681;49.188;-0.374;2023-02-12T08:49:06;103409.31;;;8.23;77.76
48862;BME280;34681;49.188;-0.374;2023-02-12T08:51:34;103405.81;;;8.19;78.04
48862;BME280;34681;49.188;-0.374;2023-02-12T08:54:02;103412.03;;;8.23;78.19
48862;BME280;34681;49.188;-0.374;2023-02-12T08:56:29;103415.13;;;8.35;77.89
48862;BME280;34681;49.188;-0.374;2023-02-12T08:58:56;103416.53;;;8.46;77.38
48862;BME280;34681;49.188;-0.374;2023-02-12T09:01:23;103413.47;;;8.31;77.65
48862;BME280;34681;49.188;-0.374;2023-02-12T09:03:50;103417.97;;;8.32;77.39
48862;BME280;34681;49.188;-0.374;2023-02-12T09:06:17;103414.38;;;8.11;77.75
48862;BME280;34681;49.188;-0.374;2023-02-12T09:08:43;103414.47;;;8.08;78.14
48862;BME280;34681;49.188;-0.374;2023-02-12T09:11:22;103413.13;;;8.18;77.93
48862;BME280;34681;49.188;-0.374;2023-02-12T09:13:51;103405.78;;;8.21;77.80
48862;BME280;34681;49.188;-0.374;2023-02-12T09:16:17;103411.25;;;8.41;77.44
48862;BME280;34681;49.188;-0.374;2023-02-12T09:18:43;103411.53;;;8.35;77.18
48862;BME280;34681;49.188;-0.374;2023-02-12T09:21:15;103420.63;;;8.34;77.15
48862;BME280;34681;49.188;-0.374;2023-02-12T09:23:44;103422.22;;;8.60;77.18
48862;BME280;34681;49.188;-0.374;2023-02-12T09:26:12;103427.91;;;8.55;76.26
48862;BME280;34681;49.188;-0.374;2023-02-12T09:28:40;103425.19;;;8.55;76.03
48862;BME280;34681;49.188;-0.374;2023-02-12T09:31:07;103428.19;;;8.69;75.64
48862;BME280;34681;49.188;-0.374;2023-02-12T09:33:33;103432.69;;;8.70;75.88
48862;BME280;34681;49.188;-0.374;2023-02-12T09:36:04;103440.94;;;8.49;76.18
48862;BME280;34681;49.188;-0.374;2023-02-12T09:38:30;103442.22;;;8.60;76.15
48862;BME280;34681;49.188;-0.374;2023-02-12T09:44:19;103443.13;;;8.40;75.69
48862;BME280;34681;49.188;-0.374;2023-02-12T09:49:25;103450.09;;;8.26;76.49
48862;BME280;34681;49.188;-0.374;2023-02-12T09:51:57;103451.16;;;8.43;75.96
48862;BME280;34681;49.188;-0.374;2023-02-12T09:54:25;103452.56;;;8.54;75.92
48862;BME280;34681;49.188;-0.374;2023-02-12T09:56:55;103452.88;;;8.66;74.95
48862;BME280;34681;49.188;-0.374;2023-02-12T09:59:55;103442.66;;;8.71;75.01
48862;BME280;34681;49.188;-0.374;2023-02-12T10:02:23;103446.13;;;8.75;74.43
48862;BME280;34681;49.188;-0.374;2023-02-12T10:04:50;103450.50;;;8.59;75.26
48862;BME280;34681;49.188;-0.374;2023-02-12T10:12:54;103443.81;;;8.86;74.99
48862;BME280;34681;49.188;-0.374;2023-02-12T10:15:46;103439.41;;;9.03;73.60
48862;BME280;34681;49.188;-0.374;2023-02-12T10:24:15;103449.78;;;9.52;73.25
48862;BME280;34681;49.188;-0.374;2023-02-12T10:26:48;103453.75;;;10.00;71.43
48862;BME280;34681;49.188;-0.374;2023-02-12T10:29:26;103454.72;;;9.99;70.32
48862;BME280;34681;49.188;-0.374;2023-02-12T10:32:01;103456.31;;;9.86;70.88
48862;BME280;34681;49.188;-0.374;2023-02-12T10:34:35;103454.63;;;9.65;71.69
48862;BME280;34681;49.188;-0.374;2023-02-12T10:40:27;103451.53;;;9.72;71.92
48862;BME280;34681;49.188;-0.374;2023-02-12T10:42:57;103456.88;;;9.93;70.60
48862;BME280;34681;49.188;-0.374;2023-02-12T10:45:29;103459.38;;;9.61;71.50
48862;BME280;34681;49.188;-0.374;2023-02-12T10:48:10;103447.09;;;9.51;71.82
48862;BME280;34681;49.188;-0.374;2023-02-12T10:50:58;103449.91;;;9.31;72.74
48862;BME280;34681;49.188;-0.374;2023-02-12T10:53:41;103451.66;;;9.13;73.04
48862;BME280;34681;49.188;-0.374;2023-02-12T10:58:40;103458.78;;;9.36;72.70
48862;BME280;34681;49.188;-0.374;2023-02-12T11:01:16;103450.88;;;9.29;71.76
48862;BME280;34681;49.188;-0.374;2023-02-12T11:03:42;103457.06;;;9.14;72.09
48862;BME280;34681;49.188;-0.374;2023-02-12T11:06:16;103455.22;;;9.15;71.64
48862;BME280;34681;49.188;-0.374;2023-02-12T11:08:42;103456.25;;;9.31;71.61
48862;BME280;34681;49.188;-0.374;2023-02-12T11:11:13;103460.22;;;9.24;70.65
48862;BME280;34681;49.188;-0.374;2023-02-12T11:13:46;103457.47;;;9.44;70.55
48862;BME280;34681;49.188;-0.374;2023-02-12T11:16:13;103453.19;;;9.94;69.11
48862;BME280;34681;49.188;-0.374;2023-02-12T11:18:41;103442.63;;;9.67;68.60
48862;BME280;34681;49.188;-0.374;2023-02-12T11:21:08;103442.34;;;10.28;68.77
48862;BME280;34681;49.188;-0.374;2023-02-12T11:23:37;103445.88;;;10.30;66.88
48862;BME280;34681;49.188;-0.374;2023-02-12T11:28:34;103440.16;;;10.52;67.16
48862;BME280;34681;49.188;-0.374;2023-02-12T11:31:20;103436.63;;;10.67;66.36
48862;BME280;34681;49.188;-0.374;2023-02-12T11:34:06;103436.72;;;10.82;65.17
48862;BME280;34681;49.188;-0.374;2023-02-12T11:36:35;103429.72;;;10.93;65.75
48862;BME280;34681;49.188;-0.374;2023-02-12T11:39:02;103434.81;;;10.49;65.35
48862;BME280;34681;49.188;-0.374;2023-02-12T11:41:34;103419.28;;;11.00;65.78
48862;BME280;34681;49.188;-0.374;2023-02-12T11:46:36;103408.78;;;11.08;64.29
48862;BME280;34681;49.188;-0.374;2023-02-12T11:49:02;103411.94;;;11.34;64.59
48862;BME280;34681;49.188;-0.374;2023-02-12T11:51:30;103408.50;;;10.97;64.94
48862;BME280;34681;49.188;-0.374;2023-02-12T11:54:02;103405.56;;;11.00;65.06
48862;BME280;34681;49.188;-0.374;2023-02-12T11:56:42;103405.84;;;10.95;65.14
48862;BME280;34681;49.188;-0.374;2023-02-12T11:59:36;103404.91;;;11.12;64.94
48862;BME280;34681;49.188;-0.374;2023-02-12T12:02:21;103405.47;;;10.35;66.41
48862;BME280;34681;49.188;-0.374;2023-02-12T12:04:51;103406.00;;;10.25;66.77
48862;BME280;34681;49.188;-0.374;2023-02-12T12:07:24;103400.63;;;10.23;66.85
48862;BME280;34681;49.188;-0.374;2023-02-12T12:10:00;103388.13;;;10.69;65.82
48862;BME280;34681;49.188;-0.374;2023-02-12T12:12:52;103392.75;;;10.52;65.65
48862;BME280;34681;49.188;-0.374;2023-02-12T12:15:27;103381.84;;;10.83;64.94
48862;BME280;34681;49.188;-0.374;2023-02-12T12:18:20;103378.63;;;11.08;65.00
48862;BME280;34681;49.188;-0.374;2023-02-12T12:23:51;103363.53;;;11.48;63.87
48862;BME280;34681;49.188;-0.374;2023-02-12T12:26:27;103372.88;;;10.97;63.47
48862;BME280;34681;49.188;-0.374;2023-02-12T12:28:58;103366.28;;;10.51;65.56
48862;BME280;34681;49.188;-0.374;2023-02-12T12:31:31;103364.72;;;10.47;65.58
48862;BME280;34681;49.188;-0.374;2023-02-12T12:34:05;103353.63;;;10.65;65.01
48862;BME280;34681;49.188;-0.374;2023-02-12T12:40:05;103346.91;;;10.21;66.63
48862;BME280;34681;49.188;-0.374;2023-02-12T12:45:47;103334.78;;;10.44;66.36
48862;BME280;34681;49.188;-0.374;2023-02-12T12:48:41;103337.09;;;10.34;67.00
48862;BME280;34681;49.188;-0.374;2023-02-12T13:05:11;103317.22;;;11.44;63.38
48862;BME280;34681;49.188;-0.374;2023-02-12T13:21:19;103302.25;;;10.37;66.04
48862;BME280;34681;49.188;-0.374;2023-02-12T13:23:59;103300.50;;;10.85;65.17
48862;BME280;34681;49.188;-0.374;2023-02-12T13:26:51;103304.41;;;11.29;64.57
48862;BME280;34681;49.188;-0.374;2023-02-12T13:29:25;103303.59;;;10.95;64.10
48862;BME280;34681;49.188;-0.374;2023-02-12T13:31:57;103293.44;;;10.97;64.68
48862;BME280;34681;49.188;-0.374;2023-02-12T13:34:27;103292.28;;;11.17;63.62
48862;BME280;34681;49.188;-0.374;2023-02-12T13:36:54;103286.19;;;10.80;64.30
48862;BME280;34681;49.188;-0.374;2023-02-12T13:39:30;103293.44;;;10.48;65.93
48862;BME280;34681;49.188;-0.374;2023-02-12T13:44:42;103287.88;;;10.50;65.39
48862;BME280;34681;49.188;-0.374;2023-02-12T13:55:16;103273.91;;;11.03;65.09
48862;BME280;34681;49.188;-0.374;2023-02-12T13:57:45;103279.19;;;10.41;65.19
48862;BME280;34681;49.188;-0.374;2023-02-12T14:03:12;103274.75;;;10.56;65.20
48862;BME280;34681;49.188;-0.374;2023-02-12T14:05:38;103257.81;;;10.81;64.69
48862;BME280;34681;49.188;-0.374;2023-02-12T14:08:04;103267.78;;;10.66;64.80
48862;BME280;34681;49.188;-0.374;2023-02-12T14:10:40;103263.13;;;10.68;65.19
48862;BME280;34681;49.188;-0.374;2023-02-12T14:13:21;103274.78;;;10.72;65.26
48862;BME280;34681;49.188;-0.374;2023-02-12T14:15:53;103259.72;;;10.48;65.97
48862;BME280;34681;49.188;-0.374;2023-02-12T14:18:27;103277.72;;;10.36;66.18
48862;BME280;34681;49.188;-0.374;2023-02-12T14:23:44;103264.25;;;10.64;65.27
48862;BME280;34681;49.188;-0.374;2023-02-12T14:26:19;103264.56;;;10.58;65.38
48862;BME280;34681;49.188;-0.374;2023-02-12T14:28:49;103257.78;;;10.65;65.57
48862;BME280;34681;49.188;-0.374;2023-02-12T14:34:37;103256.59;;;10.87;64.82
48862;BME280;34681;49.188;-0.374;2023-02-12T14:36:39;103261.53;;;11.12;64.45
48862;BME280;34681;49.188;-0.374;2023-02-12T14:41:52;103253.13;;;10.52;65.92
48862;BME280;34681;49.188;-0.374;2023-02-12T14:47:03;103239.63;;;10.80;65.17
48862;BME280;34681;49.188;-0.374;2023-02-12T14:49:44;103239.94;;;10.58;65.77
48862;BME280;34681;49.188;-0.374;2023-02-12T14:54:46;103240.28;;;10.19;67.41
48862;BME280;34681;49.188;-0.374;2023-02-12T15:02:45;103236.84;;;9.98;68.63
48862;BME280;34681;49.188;-0.374;2023-02-12T15:05:18;103229.06;;;9.91;68.74
48862;BME280;34681;49.188;-0.374;2023-02-12T15:07:59;103230.66;;;10.12;68.70
48862;BME280;34681;49.188;-0.374;2023-02-12T15:10:30;103227.91;;;10.12;68.33
48862;BME280;34681;49.188;-0.374;2023-02-12T15:15:46;103232.97;;;10.20;68.27
48862;BME280;34681;49.188;-0.374;2023-02-12T15:18:21;103232.88;;;10.21;68.25
48862;BME280;34681;49.188;-0.374;2023-02-12T15:21:08;103232.06;;;10.19;68.27
48862;BME280;34681;49.188;-0.374;2023-02-12T15:23:44;103227.44;;;10.04;68.85
48862;BME280;34681;49.188;-0.374;2023-02-12T15:26:19;103214.94;;;10.16;68.49